createdAt,value
2023-04-16T00:00:46.286Z,0.77
2023-04-16T00:01:46.361Z,0.78
2023-04-16T00:02:46.550Z,0.77
2023-04-16T00:03:46.639Z,0.78
2023-04-16T00:04:46.504Z,0.78
2023-04-16T00:05:46.469Z,0.77
2023-04-16T00:06:46.507Z,0.78
2023-04-16T00:07:46.581Z,0.77
2023-04-16T00:08:46.600Z,0.77
2023-04-16T00:09:46.641Z,0.77
2023-04-16T00:10:46.663Z,0.78
2023-04-16T00:11:46.735Z,0.78
2023-04-16T00:12:46.755Z,0.77
2023-04-16T00:13:46.828Z,0.77
2023-04-16T00:14:46.851Z,0.77
2023-04-16T00:15:46.875Z,0.77
2023-04-16T00:16:46.950Z,0.77
2023-04-16T00:17:47.005Z,0.77
2023-04-16T00:18:47.051Z,0.78
2023-04-16T00:19:47.063Z,0.78
2023-04-16T00:20:47.109Z,0.77
2023-04-16T00:21:47.163Z,0.77
2023-04-16T00:22:47.198Z,0.78
2023-04-16T00:23:47.253Z,0.78
2023-04-16T00:24:47.284Z,0.78
2023-04-16T00:25:47.349Z,0.78
2023-04-16T00:26:47.393Z,0.77
2023-04-16T00:27:47.420Z,0.78
2023-04-16T00:28:47.473Z,0.79
2023-04-16T00:29:47.534Z,0.78
2023-04-16T00:30:47.547Z,0.78
2023-04-16T00:31:47.604Z,0.77
2023-04-16T00:32:47.767Z,0.78
2023-04-16T00:33:47.690Z,0.79
2023-04-16T00:34:47.759Z,0.79
2023-04-16T00:35:47.802Z,0.77
2023-04-16T00:36:47.866Z,0.77
2023-04-16T00:37:47.924Z,0.78
2023-04-16T00:38:47.962Z,0.78
2023-04-16T00:39:48.004Z,0.78
2023-04-16T00:40:48.073Z,0.78
2023-04-16T00:41:48.077Z,0.77
2023-04-16T00:42:48.165Z,0.78
2023-04-16T00:43:48.192Z,0.78
2023-04-16T00:44:48.269Z,0.78
2023-04-16T00:45:48.352Z,0.77
2023-04-16T00:46:48.421Z,0.80
2023-04-16T00:47:48.442Z,0.78
2023-04-16T00:48:48.482Z,0.79
2023-04-16T00:49:48.489Z,0.78
2023-04-16T00:50:48.569Z,0.79
2023-04-16T00:51:48.590Z,0.79
2023-04-16T00:52:48.658Z,0.78
2023-04-16T00:53:48.722Z,0.78
2023-04-16T00:54:48.740Z,0.78
2023-04-16T00:55:48.837Z,0.79
2023-04-16T00:56:48.865Z,0.77
2023-04-16T00:57:48.934Z,0.78
2023-04-16T00:58:48.959Z,0.78
2023-04-16T00:59:48.991Z,0.79
2023-04-16T01:00:49.024Z,0.79
2023-04-16T01:01:49.234Z,0.78
2023-04-16T01:02:49.225Z,0.78
2023-04-16T01:03:49.299Z,0.78
2023-04-16T01:04:49.247Z,0.77
2023-04-16T01:05:49.292Z,0.79
2023-04-16T01:06:49.330Z,0.79
2023-04-16T01:07:49.349Z,0.78
2023-04-16T01:08:49.401Z,0.77
2023-04-16T01:09:49.449Z,0.78
2023-04-16T01:10:49.486Z,0.78
2023-04-16T01:11:49.532Z,0.79
2023-04-16T01:12:49.576Z,0.79
2023-04-16T01:13:49.594Z,0.78
2023-04-16T01:14:49.661Z,0.78
2023-04-16T01:15:49.751Z,0.79
2023-04-16T01:16:49.756Z,0.77
2023-04-16T01:17:49.886Z,0.78
2023-04-16T01:18:49.866Z,0.79
2023-04-16T01:19:49.892Z,0.79
2023-04-16T01:20:49.954Z,0.77
2023-04-16T01:21:49.965Z,0.79
2023-04-16T01:22:50.051Z,0.78
2023-04-16T01:23:50.098Z,0.78
2023-04-16T01:24:50.138Z,0.79
2023-04-16T01:25:50.213Z,0.79
2023-04-16T01:26:50.260Z,0.79
2023-04-16T01:27:50.300Z,0.78
2023-04-16T01:28:50.365Z,0.78
2023-04-16T01:29:50.411Z,0.78
2023-04-16T01:30:50.441Z,0.80
2023-04-16T01:31:50.646Z,0.79
2023-04-16T01:32:50.655Z,0.79
2023-04-16T01:33:50.639Z,0.78
2023-04-16T01:34:50.704Z,0.78
2023-04-16T01:35:50.784Z,0.80
2023-04-16T01:36:50.797Z,0.79
2023-04-16T01:37:50.843Z,0.80
2023-04-16T01:38:50.924Z,0.79
2023-04-16T01:39:50.952Z,0.79
2023-04-16T01:40:51.044Z,0.78
2023-04-16T01:41:51.068Z,0.79
2023-04-16T01:42:51.128Z,0.79
2023-04-16T01:43:51.264Z,0.79
2023-04-16T01:44:51.174Z,0.79
2023-04-16T01:45:51.171Z,0.79
2023-04-16T01:46:51.198Z,0.80
2023-04-16T01:47:51.218Z,0.79
2023-04-16T01:48:51.166Z,0.79
2023-04-16T01:49:51.179Z,0.79
2023-04-16T01:50:51.129Z,0.79
2023-04-16T01:51:51.177Z,0.79
2023-04-16T01:52:51.124Z,0.78
2023-04-16T01:53:51.171Z,0.78
2023-04-16T01:54:51.189Z,0.78
2023-04-16T01:55:51.269Z,0.77
2023-04-16T01:56:51.303Z,0.78
2023-04-16T01:57:51.379Z,0.79
2023-04-16T01:58:51.444Z,0.78
2023-04-16T01:59:51.479Z,0.78
2023-04-16T02:00:51.571Z,0.80
2023-04-16T02:01:51.642Z,0.79
2023-04-16T02:02:51.755Z,0.78
2023-04-16T02:03:51.783Z,0.78
2023-04-16T02:04:51.753Z,0.78
2023-04-16T02:05:51.814Z,0.78
2023-04-16T02:06:51.832Z,0.78
2023-04-16T02:07:51.919Z,0.79
2023-04-16T02:08:51.976Z,0.78
2023-04-16T02:09:52.029Z,0.80
2023-04-16T02:10:52.060Z,0.79
2023-04-16T02:11:52.174Z,0.78
2023-04-16T02:12:52.186Z,0.77
2023-04-16T02:13:52.258Z,0.78
2023-04-16T02:14:52.294Z,0.79
2023-04-16T02:15:52.330Z,0.78
2023-04-16T02:16:52.465Z,0.78
2023-04-16T02:17:52.568Z,0.78
2023-04-16T02:18:52.533Z,0.78
2023-04-16T02:19:52.555Z,0.79
2023-04-16T02:20:52.610Z,0.79
2023-04-16T02:21:52.672Z,0.79
2023-04-16T02:22:52.709Z,0.79
2023-04-16T02:23:52.732Z,0.78
2023-04-16T02:24:52.820Z,0.79
2023-04-16T02:25:52.867Z,0.78
2023-04-16T02:26:53.591Z,0.79
2023-04-16T02:27:52.937Z,0.79
2023-04-16T02:28:53.023Z,0.78
2023-04-16T02:29:53.077Z,0.79
2023-04-16T02:30:53.134Z,0.78
2023-04-16T02:31:53.204Z,0.79
2023-04-16T02:32:53.313Z,0.78
2023-04-16T02:33:53.286Z,0.79
2023-04-16T02:34:53.350Z,0.78
2023-04-16T02:35:53.388Z,0.77
2023-04-16T02:36:53.482Z,0.79
2023-04-16T02:37:53.518Z,0.78
2023-04-16T02:38:53.570Z,0.78
2023-04-16T02:39:53.639Z,0.76
2023-04-16T02:40:53.684Z,0.78
2023-04-16T02:41:53.722Z,0.77
2023-04-16T02:42:53.758Z,0.79
2023-04-16T02:43:53.811Z,0.79
2023-04-16T02:44:53.881Z,0.78
2023-04-16T02:45:53.951Z,0.80
2023-04-16T02:46:54.004Z,0.79
2023-04-16T02:47:54.063Z,0.78
2023-04-16T02:48:54.128Z,0.79
2023-04-16T02:49:54.197Z,0.78
2023-04-16T02:50:54.223Z,0.78
2023-04-16T02:51:54.289Z,0.78
2023-04-16T02:52:54.316Z,0.79
2023-04-16T02:53:54.390Z,0.79
2023-04-16T02:54:54.430Z,0.78
2023-04-16T02:55:54.512Z,0.77
2023-04-16T02:56:54.559Z,0.77
2023-04-16T02:57:54.595Z,0.78
2023-04-16T02:58:54.673Z,0.77
2023-04-16T02:59:54.701Z,0.77
2023-04-16T03:00:54.818Z,0.77
2023-04-16T03:01:54.890Z,0.80
2023-04-16T03:02:54.941Z,0.79
2023-04-16T03:03:54.940Z,0.78
2023-04-16T03:04:54.963Z,0.77
2023-04-16T03:05:55.027Z,0.80
2023-04-16T03:06:55.097Z,0.77
2023-04-16T03:07:55.135Z,0.76
2023-04-16T03:08:55.221Z,0.79
2023-04-16T03:09:55.261Z,0.78
2023-04-16T03:10:55.298Z,0.76
2023-04-16T03:11:55.326Z,0.78
2023-04-16T03:12:55.410Z,0.78
2023-04-16T03:13:55.464Z,0.78
2023-04-16T03:14:55.512Z,0.77
2023-04-16T03:15:55.643Z,0.77
2023-04-16T03:16:55.606Z,0.77
2023-04-16T03:17:55.735Z,0.79
2023-04-16T03:18:55.752Z,0.77
2023-04-16T03:19:55.815Z,0.77
2023-04-16T03:20:55.814Z,0.79
2023-04-16T03:21:55.903Z,0.78
2023-04-16T03:22:55.951Z,0.79
2023-04-16T03:23:56.053Z,0.77
2023-04-16T03:24:56.083Z,0.78
2023-04-16T03:25:56.116Z,0.78
2023-04-16T03:26:56.168Z,0.78
2023-04-16T03:27:56.215Z,0.78
2023-04-16T03:28:56.336Z,0.78
2023-04-16T03:29:56.370Z,0.80
2023-04-16T03:30:56.435Z,0.77
2023-04-16T03:31:56.472Z,0.78
2023-04-16T03:32:56.578Z,0.77
2023-04-16T03:33:56.570Z,0.77
2023-04-16T03:34:56.621Z,0.78
2023-04-16T03:35:56.663Z,0.77
2023-04-16T03:36:56.736Z,0.76
2023-04-16T03:37:56.770Z,0.78
2023-04-16T03:38:56.862Z,0.78
2023-04-16T03:39:56.902Z,0.77
2023-04-16T03:40:56.980Z,0.78
2023-04-16T03:41:57.017Z,0.77
2023-04-16T03:42:57.064Z,0.79
2023-04-16T03:43:57.167Z,0.78
2023-04-16T03:44:57.181Z,0.78
2023-04-16T03:45:57.247Z,0.77
2023-04-16T03:46:57.387Z,0.78
2023-04-16T03:47:57.422Z,0.79
2023-04-16T03:48:57.414Z,0.78
2023-04-16T03:49:57.448Z,0.77
2023-04-16T03:50:58.129Z,0.77
2023-04-16T03:51:57.601Z,0.77
2023-04-16T03:52:57.648Z,0.77
2023-04-16T03:53:57.707Z,0.77
2023-04-16T03:54:57.756Z,0.78
2023-04-16T03:55:57.864Z,0.77
2023-04-16T03:56:57.878Z,0.77
2023-04-16T03:57:57.957Z,0.79
2023-04-16T03:58:57.987Z,0.77
2023-04-16T03:59:58.037Z,0.78
2023-04-16T04:00:58.103Z,0.77
2023-04-16T04:01:58.220Z,0.77
2023-04-16T04:02:58.346Z,0.76
2023-04-16T04:03:58.436Z,0.76
2023-04-16T04:04:58.396Z,0.76
2023-04-16T04:05:58.416Z,0.78
2023-04-16T04:06:58.481Z,0.78
2023-04-16T04:07:58.533Z,0.78
2023-04-16T04:08:58.608Z,0.77
2023-04-16T04:09:59.637Z,0.76
2023-04-16T04:10:58.718Z,0.78
2023-04-16T04:11:58.751Z,0.77
2023-04-16T04:12:58.836Z,0.77
2023-04-16T04:13:58.926Z,0.77
2023-04-16T04:14:58.941Z,0.78
2023-04-16T04:15:59.044Z,0.78
2023-04-16T04:16:59.058Z,0.77
2023-04-16T04:17:59.167Z,0.77
2023-04-16T04:18:59.219Z,0.77
2023-04-16T04:20:01.731Z,0.77
2023-04-16T04:20:59.225Z,0.77
2023-04-16T04:21:59.229Z,0.77
2023-04-16T04:22:59.222Z,0.78
2023-04-16T04:23:59.256Z,0.76
2023-04-16T04:24:59.237Z,0.78
2023-04-16T04:25:59.207Z,0.76
2023-04-16T04:26:59.188Z,0.77
2023-04-16T04:27:59.174Z,0.79
2023-04-16T04:28:59.209Z,0.78
2023-04-16T04:29:59.222Z,0.76
2023-04-16T04:30:59.187Z,0.78
2023-04-16T04:31:59.212Z,0.76
2023-04-16T04:32:59.234Z,0.76
2023-04-16T04:33:59.182Z,0.75
2023-04-16T04:34:59.144Z,0.76
2023-04-16T04:35:59.117Z,0.75
2023-04-16T04:36:59.162Z,0.76
2023-04-16T04:37:59.125Z,0.78
2023-04-16T04:38:59.123Z,0.76
2023-04-16T04:39:59.112Z,0.77
2023-04-16T04:40:59.096Z,0.77
2023-04-16T04:41:59.088Z,0.76
2023-04-16T04:42:59.109Z,0.77
2023-04-16T04:43:59.084Z,0.75
2023-04-16T04:44:59.081Z,0.76
2023-04-16T04:45:59.144Z,0.77
2023-04-16T04:46:59.048Z,0.76
2023-04-16T04:47:59.087Z,0.76
2023-04-16T04:48:59.040Z,0.75
2023-04-16T04:49:59.017Z,0.75
2023-04-16T04:50:59.016Z,0.75
2023-04-16T04:51:59.021Z,0.76
2023-04-16T04:52:59.016Z,0.76
2023-04-16T04:53:59.009Z,0.78
2023-04-16T04:54:58.971Z,0.76
2023-04-16T04:56:11.145Z,0.77
2023-04-16T04:57:00.013Z,0.77
2023-04-16T04:57:58.982Z,0.77
2023-04-16T04:58:58.996Z,0.77
2023-04-16T04:59:58.968Z,0.76
2023-04-16T05:00:58.974Z,0.77
2023-04-16T05:01:58.974Z,0.76
2023-04-16T05:02:58.988Z,0.75
2023-04-16T05:03:58.984Z,0.76
2023-04-16T05:04:59.021Z,0.74
2023-04-16T05:05:58.949Z,0.76
2023-04-16T05:06:58.983Z,0.75
2023-04-16T05:07:59.068Z,0.77
2023-04-16T05:08:59.104Z,0.77
2023-04-16T05:09:59.177Z,0.76
2023-04-16T05:10:59.206Z,0.75
2023-04-16T05:11:59.328Z,0.74
2023-04-16T05:12:59.341Z,0.76
2023-04-16T05:13:59.442Z,0.76
2023-04-16T05:14:59.479Z,0.74
2023-04-16T05:15:59.520Z,0.75
2023-04-16T05:16:59.740Z,0.75
2023-04-16T05:17:59.728Z,0.76
2023-04-16T05:18:59.758Z,0.76
2023-04-16T05:19:59.806Z,0.76
2023-04-16T05:20:59.870Z,0.76
2023-04-16T05:21:59.921Z,0.75
2023-04-16T05:23:00.002Z,0.76
2023-04-16T05:24:00.087Z,0.75
2023-04-16T05:25:00.132Z,0.75
2023-04-16T05:26:00.170Z,0.75
2023-04-16T05:27:00.223Z,0.75
2023-04-16T05:28:00.245Z,0.75
2023-04-16T05:29:00.344Z,0.77
2023-04-16T05:30:00.385Z,0.75
2023-04-16T05:31:00.546Z,0.75
2023-04-16T05:32:00.529Z,0.76
2023-04-16T05:33:00.610Z,0.77
2023-04-16T05:34:00.643Z,0.76
2023-04-16T05:35:00.692Z,0.74
2023-04-16T05:36:00.762Z,0.76
2023-04-16T05:37:00.856Z,0.76
2023-04-16T05:38:00.909Z,0.75
2023-04-16T05:39:00.955Z,0.76
2023-04-16T05:40:01.005Z,0.75
2023-04-16T05:41:01.032Z,0.75
2023-04-16T05:42:01.124Z,0.76
2023-04-16T05:43:01.192Z,0.74
2023-04-16T05:44:01.222Z,0.75
2023-04-16T05:45:01.301Z,0.76
2023-04-16T05:46:01.408Z,0.75
2023-04-16T05:47:01.416Z,0.76
2023-04-16T05:48:01.602Z,0.75
2023-04-16T05:49:01.560Z,0.74
2023-04-16T05:50:01.602Z,0.77
2023-04-16T05:51:01.666Z,0.76
2023-04-16T05:52:01.691Z,0.74
2023-04-16T05:53:01.791Z,0.75
2023-04-16T05:54:01.853Z,0.75
2023-04-16T05:55:02.042Z,0.75
2023-04-16T05:56:01.951Z,0.74
2023-04-16T05:57:02.049Z,0.74
2023-04-16T05:58:02.968Z,0.76
2023-04-16T05:59:02.177Z,0.75
2023-04-16T06:00:02.235Z,0.73
2023-04-16T06:01:02.256Z,0.75
2023-04-16T06:02:02.370Z,0.75
2023-04-16T06:03:02.656Z,0.75
2023-04-16T06:04:02.670Z,0.76
2023-04-16T06:05:02.517Z,0.74
2023-04-16T06:06:02.698Z,0.76
2023-04-16T06:07:02.625Z,0.73
2023-04-16T06:08:02.704Z,0.75
2023-04-16T06:09:02.730Z,0.75
2023-04-16T06:10:02.800Z,0.75
2023-04-16T06:11:02.833Z,0.74
2023-04-16T06:12:02.932Z,0.75
2023-04-16T06:13:02.961Z,0.76
2023-04-16T06:14:03.064Z,0.74
2023-04-16T06:15:03.135Z,0.75
2023-04-16T06:16:03.254Z,0.74
2023-04-16T06:17:03.218Z,0.75
2023-04-16T06:18:03.328Z,0.75
2023-04-16T06:19:03.318Z,0.75
2023-04-16T06:20:03.375Z,0.74
2023-04-16T06:21:03.437Z,0.75
2023-04-16T06:22:03.485Z,0.75
2023-04-16T06:23:03.573Z,0.76
2023-04-16T06:24:03.642Z,0.75
2023-04-16T06:25:03.693Z,0.75
2023-04-16T06:26:03.723Z,0.75
2023-04-16T06:27:03.808Z,0.74
2023-04-16T06:28:03.879Z,0.75
2023-04-16T06:29:03.927Z,0.74
2023-04-16T06:30:03.958Z,0.74
2023-04-16T06:31:04.069Z,0.74
2023-04-16T06:32:04.084Z,0.73
2023-04-16T06:33:04.187Z,0.75
2023-04-16T06:34:04.222Z,0.76
2023-04-16T06:35:04.233Z,0.74
2023-04-16T06:36:04.334Z,0.74
2023-04-16T06:37:04.392Z,0.73
2023-04-16T06:38:04.426Z,0.76
2023-04-16T06:39:04.476Z,0.73
2023-04-16T06:40:04.543Z,0.75
2023-04-16T06:41:04.599Z,0.74
2023-04-16T06:42:04.621Z,0.74
2023-04-16T06:43:04.810Z,0.73
2023-04-16T06:44:04.806Z,0.76
2023-04-16T06:45:04.822Z,0.74
2023-04-16T06:46:04.922Z,0.74
2023-04-16T06:47:05.090Z,0.76
2023-04-16T06:48:05.035Z,0.75
2023-04-16T06:49:05.093Z,0.76
2023-04-16T06:50:05.131Z,0.74
2023-04-16T06:51:05.165Z,0.76
2023-04-16T06:52:06.098Z,0.74
2023-04-16T06:53:05.310Z,0.75
2023-04-16T06:54:05.344Z,0.76
2023-04-16T06:55:05.388Z,0.74
2023-04-16T06:56:05.438Z,0.73
2023-04-16T06:57:06.212Z,0.75
2023-04-16T06:58:05.579Z,0.74
2023-04-16T06:59:05.659Z,0.74
2023-04-16T07:00:05.704Z,0.75
2023-04-16T07:01:05.785Z,0.75
2023-04-16T07:02:05.873Z,0.76
2023-04-16T07:03:06.019Z,0.76
2023-04-16T07:04:06.059Z,0.74
2023-04-16T07:05:06.027Z,0.75
2023-04-16T07:06:06.056Z,0.74
2023-04-16T07:07:06.171Z,0.75
2023-04-16T07:08:06.204Z,0.75
2023-04-16T07:09:06.254Z,0.74
2023-04-16T07:10:06.331Z,0.74
2023-04-16T07:11:06.398Z,0.75
2023-04-16T07:12:06.455Z,0.76
2023-04-16T07:13:06.487Z,0.76
2023-04-16T07:14:06.570Z,0.76
2023-04-16T07:15:06.639Z,0.75
2023-04-16T07:16:06.697Z,0.75
2023-04-16T07:17:06.729Z,0.75
2023-04-16T07:18:06.920Z,0.74
2023-04-16T07:19:06.986Z,0.74
2023-04-16T07:20:06.921Z,0.75
2023-04-16T07:21:06.957Z,0.75
2023-04-16T07:22:07.030Z,0.74
2023-04-16T07:23:07.101Z,0.74
2023-04-16T07:24:07.142Z,0.74
2023-04-16T07:25:07.190Z,0.75
2023-04-16T07:26:07.230Z,0.74
2023-04-16T07:27:07.282Z,0.74
2023-04-16T07:28:07.373Z,0.75
2023-04-16T07:29:07.517Z,0.74
2023-04-16T07:30:07.505Z,0.74
2023-04-16T07:31:07.561Z,0.75
2023-04-16T07:32:07.737Z,0.75
2023-04-16T07:33:07.725Z,0.74
2023-04-16T07:34:07.751Z,0.74
2023-04-16T07:35:07.787Z,0.74
2023-04-16T07:36:07.872Z,0.74
2023-04-16T07:37:07.927Z,0.75
2023-04-16T07:38:07.976Z,0.75
2023-04-16T07:39:08.294Z,0.75
2023-04-16T07:40:08.090Z,0.74
2023-04-16T07:41:08.147Z,0.73
2023-04-16T07:42:08.230Z,0.73
2023-04-16T07:43:08.268Z,0.72
2023-04-16T07:44:08.359Z,0.73
2023-04-16T07:45:08.384Z,0.74
2023-04-16T07:46:08.544Z,0.75
2023-04-16T07:47:08.493Z,0.73
2023-04-16T07:48:08.576Z,0.74
2023-04-16T07:49:08.924Z,0.75
2023-04-16T07:50:08.683Z,0.74
2023-04-16T07:51:08.745Z,0.74
2023-04-16T07:52:08.797Z,0.74
2023-04-16T07:53:08.841Z,0.72
2023-04-16T07:54:08.920Z,0.75
2023-04-16T07:55:08.999Z,0.74
2023-04-16T07:56:09.064Z,0.74
2023-04-16T07:57:09.090Z,0.74
2023-04-16T07:58:09.171Z,0.74
2023-04-16T07:59:22.054Z,0.74
2023-04-16T08:00:10.214Z,0.74
2023-04-16T08:01:09.214Z,0.74
2023-04-16T08:02:09.299Z,0.75
2023-04-16T08:03:09.273Z,0.74
2023-04-16T08:04:09.419Z,0.73
2023-04-16T08:05:09.215Z,0.73
2023-04-16T08:06:09.183Z,0.75
2023-04-16T08:07:09.159Z,0.75
2023-04-16T08:08:09.175Z,0.73
2023-04-16T08:09:09.431Z,0.73
2023-04-16T08:10:09.245Z,0.74
2023-04-16T08:11:09.263Z,0.76
2023-04-16T08:12:09.295Z,0.75
2023-04-16T08:13:09.391Z,0.74
2023-04-16T08:14:09.416Z,0.74
2023-04-16T08:15:09.505Z,0.73
2023-04-16T08:16:09.572Z,0.75
2023-04-16T08:17:09.625Z,0.74
2023-04-16T08:18:09.746Z,0.74
2023-04-16T08:19:09.982Z,0.75
2023-04-16T08:20:11.308Z,0.74
2023-04-16T08:21:09.782Z,0.75
2023-04-16T08:22:09.740Z,0.74
2023-04-16T08:23:09.753Z,0.74
2023-04-16T08:24:09.756Z,0.74
2023-04-16T08:25:09.715Z,0.74
2023-04-16T08:26:09.723Z,0.74
2023-04-16T08:27:18.678Z,0.76
2023-04-16T08:28:10.707Z,0.76
2023-04-16T08:29:09.941Z,0.76
2023-04-16T08:30:09.734Z,0.75
2023-04-16T08:31:09.692Z,0.74
2023-04-16T08:32:09.679Z,0.75
2023-04-16T08:33:09.728Z,0.74
2023-04-16T08:34:09.659Z,0.74
2023-04-16T08:35:09.628Z,0.73
2023-04-16T08:36:09.638Z,0.73
2023-04-16T08:37:09.678Z,0.74
2023-04-16T08:38:09.647Z,0.73
2023-04-16T08:39:10.142Z,0.73
2023-04-16T08:40:09.793Z,0.73
2023-04-16T08:41:09.824Z,0.75
2023-04-16T08:42:09.873Z,0.74
2023-04-16T08:43:09.889Z,0.74
2023-04-16T08:44:09.968Z,0.73
2023-04-16T08:45:10.002Z,0.74
2023-04-16T08:46:10.091Z,0.72
2023-04-16T08:47:10.160Z,0.74
2023-04-16T08:48:10.180Z,0.73
2023-04-16T08:49:10.491Z,0.73
2023-04-16T08:50:10.282Z,0.74
2023-04-16T08:51:10.280Z,0.74
2023-04-16T08:52:10.343Z,0.74
2023-04-16T08:53:10.406Z,0.73
2023-04-16T08:54:10.444Z,0.74
2023-04-16T08:55:10.508Z,0.72
2023-04-16T08:56:10.533Z,0.72
2023-04-16T08:57:10.582Z,0.73
2023-04-16T08:58:10.631Z,0.73
2023-04-16T08:59:11.034Z,0.72
2023-04-16T09:00:10.693Z,0.73
2023-04-16T09:01:10.762Z,0.73
2023-04-16T09:02:10.833Z,0.72
2023-04-16T09:03:11.014Z,0.73
2023-04-16T09:04:11.183Z,0.73
2023-04-16T09:05:10.933Z,0.73
2023-04-16T09:06:10.958Z,0.74
2023-04-16T09:07:11.042Z,0.72
2023-04-16T09:08:11.064Z,0.72
2023-04-16T09:09:11.217Z,0.72
2023-04-16T09:10:11.153Z,0.73
2023-04-16T09:11:11.198Z,0.73
2023-04-16T09:12:11.224Z,0.72
2023-04-16T09:13:11.284Z,0.72
2023-04-16T09:14:11.353Z,0.72
2023-04-16T09:15:11.412Z,0.72
2023-04-16T09:16:11.458Z,0.73
2023-04-16T09:17:11.456Z,0.71
2023-04-16T09:18:11.541Z,0.74
2023-04-16T09:19:11.842Z,0.73
2023-04-16T09:20:11.595Z,0.72
2023-04-16T09:21:11.657Z,0.72
2023-04-16T09:22:11.703Z,0.72
2023-04-16T09:23:11.753Z,0.72
2023-04-16T09:24:11.772Z,0.72
2023-04-16T09:25:11.803Z,0.72
2023-04-16T09:26:11.862Z,0.71
2023-04-16T09:27:11.887Z,0.72
2023-04-16T09:28:11.962Z,0.72
2023-04-16T09:29:12.180Z,0.72
2023-04-16T09:30:12.026Z,0.73
2023-04-16T09:31:12.056Z,0.72
2023-04-16T09:32:12.196Z,0.72
2023-04-16T09:33:12.167Z,0.73
2023-04-16T09:34:12.274Z,0.71
2023-04-16T09:35:12.231Z,0.71
2023-04-16T09:36:12.264Z,0.72
2023-04-16T09:37:12.302Z,0.71
2023-04-16T09:38:12.372Z,0.71
2023-04-16T09:39:12.417Z,0.72
2023-04-16T09:40:12.436Z,0.71
2023-04-16T09:41:12.482Z,0.71
2023-04-16T09:42:12.519Z,0.71
2023-04-16T09:43:12.566Z,0.71
2023-04-16T09:44:12.578Z,0.72
2023-04-16T09:45:12.634Z,0.71
2023-04-16T09:46:12.684Z,0.71
2023-04-16T09:47:12.692Z,0.71
2023-04-16T09:48:12.736Z,0.71
2023-04-16T09:49:12.992Z,0.71
2023-04-16T09:50:13.276Z,0.72
2023-04-16T09:51:12.846Z,0.69
2023-04-16T09:52:12.907Z,0.70
2023-04-16T09:53:12.943Z,0.72
2023-04-16T09:54:12.964Z,0.70
2023-04-16T09:55:13.015Z,0.70
2023-04-16T09:56:13.036Z,0.71
2023-04-16T09:57:13.085Z,0.71
2023-04-16T09:58:13.097Z,0.71
2023-04-16T09:59:13.146Z,0.71
2023-04-16T10:00:13.170Z,0.72
2023-04-16T10:01:13.213Z,0.72
2023-04-16T10:02:15.188Z,0.72
2023-04-16T10:03:13.469Z,0.71
2023-04-16T10:04:13.265Z,0.72
2023-04-16T10:05:13.258Z,0.71
2023-04-16T10:06:13.240Z,0.73
2023-04-16T10:07:13.173Z,0.71
2023-04-16T10:08:13.182Z,0.70
2023-04-16T10:09:13.207Z,0.70
2023-04-16T10:10:13.178Z,0.71
2023-04-16T10:11:13.172Z,0.70
2023-04-16T10:12:13.816Z,0.71
2023-04-16T10:13:13.175Z,0.71
2023-04-16T10:14:13.162Z,0.70
2023-04-16T10:15:13.144Z,0.71
2023-04-16T10:16:13.208Z,0.70
2023-04-16T10:17:13.183Z,0.70
2023-04-16T10:18:13.278Z,0.71
2023-04-16T10:19:13.215Z,0.70
2023-04-16T10:20:13.495Z,0.70
2023-04-16T10:21:13.149Z,0.71
2023-04-16T10:22:13.107Z,0.70
2023-04-16T10:23:13.092Z,0.70
2023-04-16T10:24:13.075Z,0.72
2023-04-16T10:25:13.107Z,0.71
2023-04-16T10:26:13.082Z,0.71
2023-04-16T10:27:13.162Z,0.70
2023-04-16T10:28:13.066Z,0.71
2023-04-16T10:29:13.035Z,0.71
2023-04-16T10:30:13.072Z,0.71
2023-04-16T10:31:13.105Z,0.71
2023-04-16T10:32:13.015Z,0.70
2023-04-16T10:33:13.043Z,0.72
2023-04-16T10:34:13.055Z,0.71
2023-04-16T10:35:13.013Z,0.73
2023-04-16T10:36:13.039Z,0.73
2023-04-16T10:37:13.018Z,0.72
2023-04-16T10:38:13.023Z,0.72
2023-04-16T10:39:14.745Z,0.73
2023-04-16T10:40:12.981Z,0.73
2023-04-16T10:41:12.956Z,0.74
2023-04-16T10:42:13.008Z,0.73
2023-04-16T10:43:12.996Z,0.74
2023-04-16T10:44:12.946Z,0.74
2023-04-16T10:45:12.996Z,0.74
2023-04-16T10:46:12.968Z,0.73
2023-04-16T10:47:12.942Z,0.74
2023-04-16T10:48:12.956Z,0.75
2023-04-16T10:49:12.933Z,0.73
2023-04-16T10:50:12.933Z,0.76
2023-04-16T10:51:12.981Z,0.74
2023-04-16T10:52:12.919Z,0.75
2023-04-16T10:53:12.930Z,0.74
2023-04-16T10:54:12.889Z,0.75
2023-04-16T10:55:12.857Z,0.75
2023-04-16T10:56:12.884Z,0.76
2023-04-16T10:57:12.861Z,0.74
2023-04-16T10:58:12.916Z,0.74
2023-04-16T10:59:13.022Z,0.75
2023-04-16T11:00:12.844Z,0.75
2023-04-16T11:01:12.899Z,0.76
2023-04-16T11:02:12.931Z,0.76
2023-04-16T11:03:12.984Z,0.76
2023-04-16T11:04:12.976Z,0.76
2023-04-16T11:05:12.831Z,0.76
2023-04-16T11:06:12.821Z,0.75
2023-04-16T11:07:12.819Z,0.78
2023-04-16T11:08:12.777Z,0.76
2023-04-16T11:09:12.907Z,0.76
2023-04-16T11:10:12.775Z,0.76
2023-04-16T11:11:12.825Z,0.77
2023-04-16T11:12:12.764Z,0.76
2023-04-16T11:13:14.360Z,0.77
2023-04-16T11:14:12.758Z,0.77
2023-04-16T11:15:12.782Z,0.74
2023-04-16T11:16:12.743Z,0.76
2023-04-16T11:17:12.731Z,0.76
2023-04-16T11:18:12.719Z,0.75
2023-04-16T11:19:12.714Z,0.75
2023-04-16T11:20:19.487Z,0.76
2023-04-16T11:21:13.710Z,0.76
2023-04-16T11:22:12.683Z,0.76
2023-04-16T11:23:12.699Z,0.77
2023-04-16T11:24:12.676Z,0.77
2023-04-16T11:25:12.670Z,0.77
2023-04-16T11:26:12.683Z,0.76
2023-04-16T11:27:12.653Z,0.77
2023-04-16T11:28:12.631Z,0.75
2023-04-16T11:29:12.657Z,0.77
2023-04-16T11:30:12.620Z,0.77
2023-04-16T11:31:12.682Z,0.76
2023-04-16T11:32:12.613Z,0.76
2023-04-16T11:33:12.617Z,0.77
2023-04-16T11:34:12.601Z,0.77
2023-04-16T11:35:12.607Z,0.76
2023-04-16T11:36:12.573Z,0.76
2023-04-16T11:37:12.638Z,0.76
2023-04-16T11:38:12.586Z,0.76
2023-04-16T11:39:12.713Z,0.76
2023-04-16T11:40:12.584Z,0.78
2023-04-16T11:41:12.579Z,0.76
2023-04-16T11:42:12.600Z,0.77
2023-04-16T11:43:12.566Z,0.77
2023-04-16T11:44:12.528Z,0.78
2023-04-16T11:45:12.543Z,0.75
2023-04-16T11:46:24.535Z,0.77
2023-04-16T11:47:13.601Z,0.77
2023-04-16T11:48:12.525Z,0.77
2023-04-16T11:49:12.746Z,0.77
2023-04-16T11:50:12.524Z,0.77
2023-04-16T11:51:12.542Z,0.77
2023-04-16T11:52:12.510Z,0.78
2023-04-16T11:53:12.489Z,0.77
2023-04-16T11:54:12.478Z,0.78
2023-04-16T11:55:12.465Z,0.77
2023-04-16T11:56:12.517Z,0.78
2023-04-16T11:57:12.484Z,0.78
2023-04-16T11:58:12.455Z,0.78
2023-04-16T11:59:12.871Z,0.77
2023-04-16T12:00:12.451Z,0.75
2023-04-16T12:01:12.467Z,0.77
2023-04-16T12:02:12.505Z,0.76
2023-04-16T12:03:12.654Z,0.77
2023-04-16T12:04:12.615Z,0.76
2023-04-16T12:05:12.451Z,0.77
2023-04-16T12:06:12.413Z,0.75
2023-04-16T12:07:12.408Z,0.77
2023-04-16T12:08:12.400Z,0.76
2023-04-16T12:09:12.475Z,0.76
2023-04-16T12:10:12.410Z,0.78
2023-04-16T12:11:12.354Z,0.76
2023-04-16T12:12:12.385Z,0.76
2023-04-16T12:13:12.345Z,0.76
2023-04-16T12:14:12.374Z,0.77
2023-04-16T12:15:12.367Z,0.77
2023-04-16T12:16:12.404Z,0.76
2023-04-16T12:17:12.440Z,0.77
2023-04-16T12:18:12.444Z,0.78
2023-04-16T12:19:12.719Z,0.78
2023-04-16T12:20:12.537Z,0.77
2023-04-16T12:21:12.480Z,0.77
2023-04-16T12:22:12.477Z,0.76
2023-04-16T12:23:12.503Z,0.77
2023-04-16T12:24:12.553Z,0.76
2023-04-16T12:25:12.555Z,0.77
2023-04-16T12:26:12.566Z,0.76
2023-04-16T12:27:12.569Z,0.77
2023-04-16T12:28:12.587Z,0.77
2023-04-16T12:29:12.606Z,0.77
2023-04-16T12:30:12.624Z,0.77
2023-04-16T12:31:12.690Z,0.76
2023-04-16T12:32:12.660Z,0.77
2023-04-16T12:33:12.800Z,0.77
2023-04-16T12:34:12.708Z,0.77
2023-04-16T12:35:12.676Z,0.78
2023-04-16T12:36:12.737Z,0.79
2023-04-16T12:37:12.743Z,0.78
2023-04-16T12:38:12.794Z,0.78
2023-04-16T12:39:12.801Z,0.78
2023-04-16T12:40:12.844Z,0.78
2023-04-16T12:41:12.827Z,0.77
2023-04-16T12:42:12.876Z,0.76
2023-04-16T12:43:12.886Z,0.77
2023-04-16T12:44:12.886Z,0.77
2023-04-16T12:45:12.916Z,0.77
2023-04-16T12:46:12.944Z,0.76
2023-04-16T12:47:12.932Z,0.76
2023-04-16T12:48:12.967Z,0.77
2023-04-16T12:49:12.977Z,0.76
2023-04-16T12:50:13.014Z,0.78
2023-04-16T12:51:13.044Z,0.77
2023-04-16T12:52:13.065Z,0.78
2023-04-16T12:53:13.090Z,0.76
2023-04-16T12:54:13.127Z,0.77
2023-04-16T12:55:13.126Z,0.78
2023-04-16T12:56:13.176Z,0.77
2023-04-16T12:57:13.202Z,0.76
2023-04-16T12:58:13.208Z,0.78
2023-04-16T12:59:13.220Z,0.77
2023-04-16T13:00:13.286Z,0.78
2023-04-16T13:01:13.304Z,0.78
2023-04-16T13:02:13.474Z,0.77
2023-04-16T13:03:13.389Z,0.78
2023-04-16T13:04:13.510Z,0.76
2023-04-16T13:05:13.324Z,0.77
2023-04-16T13:06:13.361Z,0.77
2023-04-16T13:07:13.400Z,0.77
2023-04-16T13:08:13.422Z,0.78
2023-04-16T13:09:13.417Z,0.77
2023-04-16T13:10:13.467Z,0.77
2023-04-16T13:11:13.494Z,0.78
2023-04-16T13:12:13.478Z,0.77
2023-04-16T13:13:13.475Z,0.76
2023-04-16T13:14:13.513Z,0.78
2023-04-16T13:15:13.547Z,0.78
2023-04-16T13:16:13.548Z,0.78
2023-04-16T13:17:13.585Z,0.77
2023-04-16T13:18:13.634Z,0.77
2023-04-16T13:19:13.693Z,0.77